Time;durP1;ratioP1;P1;durP2;ratioP2;P2;SDS_P1;SDS_P2;PMS_P1;PMS_P2;Temp;Humidity;BMP_temperature;BMP_pressure;BME280_temperature;BME280_humidity;BME280_pressure;Samples;Min_cycle;Max_cycle;Signal;HPM_P1;HPM_P2
2023/05/16 00:00:08;;;;;;;11.45;8.10;;;;;;;;;;5031233;28;20776;-73
2023/05/16 00:02:38;;;;;;;15.00;8.32;;;;;;;;;;5031482;28;20049;-74
2023/05/16 00:05:06;;;;;;;9.73;8.60;;;;;;;;;;5031382;28;20021;-74
2023/05/16 00:07:32;;;;;;;11.55;8.70;;;;;;;;;;5030525;28;20053;-73
2023/05/16 00:09:58;;;;;;;21.40;8.70;;;;;;;;;;5031558;28;20395;-74
2023/05/16 00:12:25;;;;;;;12.27;8.60;;;;;;;;;;5031097;28;20461;-73
2023/05/16 00:14:51;;;;;;;11.02;8.98;;;;;;;;;;5031088;28;20045;-74
2023/05/16 00:17:19;;;;;;;10.10;8.95;;;;;;;;;;5030206;28;20057;-74
2023/05/16 00:19:47;;;;;;;10.57;8.57;;;;;;;;;;5031054;28;20638;-74
2023/05/16 00:22:13;;;;;;;10.85;9.00;;;;;;;;;;5013413;28;20103;-74
2023/05/16 00:24:40;;;;;;;11.05;9.25;;;;;;;;;;5031261;28;20488;-74
2023/05/16 00:27:06;;;;;;;12.07;9.70;;;;;;;;;;5030200;28;20122;-74
2023/05/16 00:29:32;;;;;;;15.60;10.27;;;;;;;;;;5031022;28;20032;-74
2023/05/16 00:31:59;;;;;;;14.13;11.05;;;;;;;;;;5031611;28;20017;-74
2023/05/16 00:34:25;;;;;;;11.57;9.95;;;;;;;;;;5031268;28;20036;-73
2023/05/16 00:36:51;;;;;;;11.98;10.45;;;;;;;;;;5030950;28;20092;-74
2023/05/16 00:39:17;;;;;;;13.43;10.45;;;;;;;;;;5030318;28;20053;-74
2023/05/16 00:41:43;;;;;;;14.07;9.80;;;;;;;;;;5030968;28;20391;-74
2023/05/16 00:44:09;;;;;;;17.73;10.65;;;;;;;;;;5030734;28;20029;-74
2023/05/16 00:46:36;;;;;;;13.65;10.45;;;;;;;;;;5072014;22;20510;-73
2023/05/16 00:49:02;;;;;;;14.38;10.55;;;;;;;;;;5047034;28;20043;-74
2023/05/16 00:51:28;;;;;;;12.25;10.93;;;;;;;;;;5050646;28;20021;-75
2023/05/16 00:53:54;;;;;;;15.32;10.45;;;;;;;;;;5032981;28;20037;-74
2023/05/16 00:56:21;;;;;;;15.27;11.00;;;;;;;;;;5050880;28;20032;-75
2023/05/16 00:58:47;;;;;;;14.98;10.15;;;;;;;;;;5033098;28;20031;-76
2023/05/16 01:01:13;;;;;;;12.23;10.35;;;;;;;;;;5051647;28;20025;-76
2023/05/16 01:03:41;;;;;;;12.77;11.07;;;;;;;;;;5051512;28;20029;-75
2023/05/16 01:06:07;;;;;;;15.70;11.02;;;;;;;;;;5052095;28;20504;-74
2023/05/16 01:08:33;;;;;;;14.45;10.60;;;;;;;;;;5050158;28;20021;-74
2023/05/16 01:11:11;;;;;;;12.48;10.68;;;;;;;;;;5050667;28;20055;-75
2023/05/16 01:13:43;;;;;;;16.25;10.90;;;;;;;;;;5051048;28;20074;-75
2023/05/16 01:16:13;;;;;;;12.63;9.90;;;;;;;;;;5051638;28;20498;-74
2023/05/16 01:18:42;;;;;;;14.40;10.93;;;;;;;;;;5034106;28;20021;-75
2023/05/16 01:21:15;;;;;;;13.45;10.95;;;;;;;;;;5056490;28;20164;-75
2023/05/16 01:23:49;;;;;;;17.45;10.88;;;;;;;;;;5057293;28;20088;-75
2023/05/16 01:26:16;;;;;;;14.02;11.65;;;;;;;;;;5043812;28;20079;-75
2023/05/16 01:28:45;;;;;;;14.20;11.48;;;;;;;;;;5016486;28;20087;-75
2023/05/16 01:31:11;;;;;;;13.20;10.77;;;;;;;;;;5034672;28;20029;-74
2023/05/16 01:33:37;;;;;;;12.57;10.95;;;;;;;;;;5035207;28;20174;-75
2023/05/16 01:36:10;;;;;;;12.18;10.55;;;;;;;;;;5034879;28;20049;-75
2023/05/16 01:38:39;;;;;;;15.52;11.40;;;;;;;;;;5015489;28;20025;-75
2023/05/16 01:41:23;;;;;;;14.32;11.15;;;;;;;;;;5033820;28;20036;-74
2023/05/16 01:43:51;;;;;;;13.70;11.52;;;;;;;;;;5033496;28;20025;-75
2023/05/16 01:46:22;;;;;;;12.98;11.57;;;;;;;;;;5033491;28;20021;-74
2023/05/16 01:48:53;;;;;;;13.73;11.83;;;;;;;;;;5032477;28;20067;-75
2023/05/16 01:51:24;;;;;;;15.13;11.60;;;;;;;;;;5033313;28;20268;-75
2023/05/16 01:53:51;;;;;;;18.35;12.18;;;;;;;;;;5033574;28;20036;-75
2023/05/16 01:56:17;;;;;;;18.85;12.07;;;;;;;;;;5033603;28;20017;-76
2023/05/16 01:58:45;;;;;;;14.30;12.18;;;;;;;;;;5032332;28;20474;-75
2023/05/16 02:01:13;;;;;;;15.70;12.48;;;;;;;;;;5015611;28;20048;-75
2023/05/16 02:03:39;;;;;;;13.70;12.00;;;;;;;;;;5015260;28;20401;-75
2023/05/16 02:06:05;;;;;;;14.10;12.63;;;;;;;;;;5033460;28;20104;-74
2023/05/16 02:08:31;;;;;;;16.02;12.23;;;;;;;;;;5036300;28;20025;-74
2023/05/16 02:10:57;;;;;;;15.68;12.55;;;;;;;;;;5055941;28;20023;-73
2023/05/16 02:13:23;;;;;;;14.85;12.15;;;;;;;;;;5056305;28;20111;-74
2023/05/16 02:15:50;;;;;;;14.75;12.80;;;;;;;;;;5052815;28;20447;-73
2023/05/16 02:18:17;;;;;;;15.85;13.70;;;;;;;;;;5051842;28;20025;-74
2023/05/16 02:20:43;;;;;;;17.42;13.27;;;;;;;;;;5052876;28;20033;-74
2023/05/16 02:23:09;;;;;;;16.08;12.82;;;;;;;;;;5052668;28;20029;-74
2023/05/16 02:25:35;;;;;;;15.00;12.07;;;;;;;;;;5031077;28;20430;-74
2023/05/16 02:28:01;;;;;;;15.77;13.48;;;;;;;;;;5030720;28;20018;-74
2023/05/16 02:30:27;;;;;;;21.70;13.95;;;;;;;;;;5030744;28;20022;-74
2023/05/16 02:32:53;;;;;;;15.15;13.55;;;;;;;;;;5032470;28;20029;-74
2023/05/16 02:35:19;;;;;;;14.23;12.50;;;;;;;;;;5032560;28;20032;-74
2023/05/16 02:37:45;;;;;;;17.88;13.10;;;;;;;;;;5031824;28;20022;-74
2023/05/16 02:40:11;;;;;;;14.35;12.63;;;;;;;;;;5031135;28;20071;-73
2023/05/16 02:42:37;;;;;;;15.15;12.10;;;;;;;;;;5048693;28;20039;-74
2023/05/16 02:45:04;;;;;;;13.35;11.90;;;;;;;;;;5052463;28;20104;-74
2023/05/16 02:47:30;;;;;;;15.18;12.77;;;;;;;;;;5051304;28;20032;-73
2023/05/16 02:49:56;;;;;;;17.52;12.98;;;;;;;;;;5050801;28;20021;-74
2023/05/16 02:52:22;;;;;;;14.38;12.43;;;;;;;;;;5051953;28;20147;-73
2023/05/16 02:54:48;;;;;;;15.35;13.10;;;;;;;;;;5037727;28;20044;-73
2023/05/16 02:57:14;;;;;;;13.98;12.23;;;;;;;;;;5033150;28;20492;-73
2023/05/16 02:59:40;;;;;;;15.25;13.48;;;;;;;;;;5051873;28;20025;-72
2023/05/16 03:02:07;;;;;;;18.58;13.18;;;;;;;;;;5051700;28;20483;-74
2023/05/16 03:04:33;;;;;;;16.17;13.65;;;;;;;;;;5051826;28;20510;-74
2023/05/16 03:06:59;;;;;;;13.85;12.30;;;;;;;;;;5051041;28;20075;-72
2023/05/16 03:09:25;;;;;;;15.35;13.10;;;;;;;;;;5051568;28;20083;-74
2023/05/16 03:11:51;;;;;;;14.43;12.00;;;;;;;;;;5033816;28;20021;-74
2023/05/16 03:14:17;;;;;;;16.48;12.98;;;;;;;;;;5051805;28;20027;-74
2023/05/16 03:16:43;;;;;;;15.98;13.05;;;;;;;;;;5051223;28;20475;-74
2023/05/16 03:19:09;;;;;;;17.50;13.38;;;;;;;;;;5050246;28;20343;-74
2023/05/16 03:21:35;;;;;;;17.92;14.32;;;;;;;;;;5050638;28;20017;-74
2023/05/16 03:24:02;;;;;;;16.15;14.10;;;;;;;;;;5033268;28;20059;-74
2023/05/16 03:26:28;;;;;;;19.30;14.50;;;;;;;;;;5050942;28;20138;-74
2023/05/16 03:28:55;;;;;;;15.57;13.50;;;;;;;;;;5050210;28;20025;-75
2023/05/16 03:31:21;;;;;;;16.40;14.40;;;;;;;;;;5049465;28;20025;-75
2023/05/16 03:33:46;;;;;;;15.50;13.73;;;;;;;;;;5033409;28;20391;-75
2023/05/16 03:36:13;;;;;;;17.63;14.27;;;;;;;;;;5049993;28;20017;-74
2023/05/16 03:38:39;;;;;;;20.27;14.00;;;;;;;;;;5050686;28;20021;-74
2023/05/16 03:41:05;;;;;;;16.90;13.27;;;;;;;;;;5051170;28;20437;-73
2023/05/16 03:43:31;;;;;;;18.23;14.82;;;;;;;;;;5032721;28;20078;-74
2023/05/16 03:45:57;;;;;;;17.02;13.10;;;;;;;;;;5050870;28;20025;-74
2023/05/16 03:48:23;;;;;;;18.33;13.40;;;;;;;;;;5050527;28;20029;-75
2023/05/16 03:50:50;;;;;;;17.42;14.85;;;;;;;;;;5050958;28;20028;-74
2023/05/16 03:53:16;;;;;;;19.05;14.35;;;;;;;;;;5051280;28;20104;-74
2023/05/16 03:55:42;;;;;;;17.10;13.63;;;;;;;;;;5049404;28;20021;-74
2023/05/16 03:58:08;;;;;;;16.63;12.90;;;;;;;;;;5049931;28;20024;-75
2023/05/16 04:00:35;;;;;;;18.48;13.93;;;;;;;;;;5050972;28;20107;-74
2023/05/16 04:03:01;;;;;;;15.15;13.30;;;;;;;;;;5051548;28;20391;-74
2023/05/16 04:05:28;;;;;;;15.55;13.38;;;;;;;;;;5051007;28;20025;-74
2023/05/16 04:07:54;;;;;;;21.27;14.38;;;;;;;;;;5050159;28;20017;-74
2023/05/16 04:10:20;;;;;;;15.48;13.68;;;;;;;;;;5050950;28;20376;-74
2023/05/16 04:12:46;;;;;;;14.75;13.00;;;;;;;;;;5050705;28;20021;-75
2023/05/16 04:15:12;;;;;;;17.40;14.00;;;;;;;;;;5050639;28;20031;-75
2023/05/16 04:17:39;;;;;;;16.40;13.00;;;;;;;;;;5049943;28;20029;-74
2023/05/16 04:20:05;;;;;;;15.98;12.90;;;;;;;;;;5051119;28;20040;-74
2023/05/16 04:22:32;;;;;;;16.92;13.32;;;;;;;;;;5053730;28;20103;-75
2023/05/16 04:24:58;;;;;;;15.43;12.95;;;;;;;;;;5053059;28;20029;-75
2023/05/16 04:27:25;;;;;;;16.50;13.27;;;;;;;;;;5049651;28;20092;-75
2023/05/16 04:29:51;;;;;;;17.08;13.73;;;;;;;;;;5050449;28;20112;-75
2023/05/16 04:32:18;;;;;;;15.25;13.75;;;;;;;;;;5050723;28;20029;-76
2023/05/16 04:34:46;;;;;;;13.98;12.45;;;;;;;;;;5049587;28;20071;-76
2023/05/16 04:37:13;;;;;;;15.80;13.00;;;;;;;;;;5048089;28;20024;-74
2023/05/16 04:39:39;;;;;;;14.23;12.57;;;;;;;;;;5030920;28;20025;-75
2023/05/16 04:42:05;;;;;;;13.90;12.50;;;;;;;;;;5048790;28;20544;-75
2023/05/16 04:44:31;;;;;;;16.17;13.77;;;;;;;;;;5048806;28;20079;-75
2023/05/16 04:46:57;;;;;;;18.15;13.65;;;;;;;;;;5048958;28;20029;-74
2023/05/16 04:49:23;;;;;;;23.08;13.68;;;;;;;;;;5049063;28;20031;-74
2023/05/16 04:51:49;;;;;;;17.00;13.13;;;;;;;;;;5050623;28;20017;-75
2023/05/16 04:54:15;;;;;;;20.73;13.75;;;;;;;;;;5052886;28;20063;-74
2023/05/16 04:56:41;;;;;;;17.45;14.93;;;;;;;;;;5054185;28;20032;-74
2023/05/16 04:59:07;;;;;;;27.30;14.20;;;;;;;;;;5053763;28;20055;-75
2023/05/16 05:01:33;;;;;;;24.23;16.85;;;;;;;;;;5054609;28;20128;-73
2023/05/16 05:03:59;;;;;;;34.78;14.35;;;;;;;;;;5036105;28;20144;-74
2023/05/16 05:06:25;;;;;;;59.95;15.13;;;;;;;;;;5036207;28;20025;-75
2023/05/16 05:08:51;;;;;;;17.92;12.60;;;;;;;;;;5053042;28;20022;-75
2023/05/16 05:11:17;;;;;;;16.25;14.43;;;;;;;;;;5054253;28;20845;-75
2023/05/16 05:13:44;;;;;;;16.35;14.27;;;;;;;;;;5059072;28;20017;-75
2023/05/16 05:16:10;;;;;;;16.90;14.27;;;;;;;;;;5056167;28;20017;-75
2023/05/16 05:18:36;;;;;;;17.17;13.70;;;;;;;;;;5053007;28;20021;-75
2023/05/16 05:21:02;;;;;;;16.83;15.02;;;;;;;;;;5054049;28;20437;-75
2023/05/16 05:23:29;;;;;;;16.13;13.55;;;;;;;;;;5053755;28;20018;-75
2023/05/16 05:25:55;;;;;;;17.20;14.20;;;;;;;;;;5054755;28;20025;-75
2023/05/16 05:28:21;;;;;;;18.83;13.65;;;;;;;;;;5052671;28;20070;-74
2023/05/16 05:30:47;;;;;;;17.55;13.93;;;;;;;;;;5053314;28;20442;-74
2023/05/16 05:33:16;;;;;;;20.42;14.85;;;;;;;;;;5053351;28;20635;-74
2023/05/16 05:35:42;;;;;;;21.48;16.30;;;;;;;;;;5053406;28;20033;-74
2023/05/16 05:38:08;;;;;;;18.90;16.50;;;;;;;;;;5052456;28;20080;-74
2023/05/16 05:40:34;;;;;;;20.40;17.63;;;;;;;;;;5053300;28;20472;-73
2023/05/16 05:43:00;;;;;;;18.80;16.40;;;;;;;;;;5053487;28;20044;-74
2023/05/16 05:45:26;;;;;;;24.77;18.42;;;;;;;;;;5050702;28;20025;-74
2023/05/16 05:47:53;;;;;;;21.92;17.35;;;;;;;;;;5033739;28;20175;-74
2023/05/16 05:50:19;;;;;;;23.88;17.98;;;;;;;;;;5031729;28;20087;-73
2023/05/16 05:52:45;;;;;;;23.98;18.38;;;;;;;;;;5052973;28;20102;-74
2023/05/16 05:55:11;;;;;;;24.10;18.95;;;;;;;;;;5053180;28;20025;-75
2023/05/16 05:57:37;;;;;;;28.05;20.95;;;;;;;;;;5052358;28;20052;-74
2023/05/16 06:00:04;;;;;;;26.33;21.00;;;;;;;;;;5038369;28;20025;-75
2023/05/16 06:02:30;;;;;;;24.63;19.80;;;;;;;;;;5052188;28;20022;-74
2023/05/16 06:04:56;;;;;;;22.33;20.02;;;;;;;;;;5051682;28;20075;-74
2023/05/16 06:07:22;;;;;;;24.98;19.40;;;;;;;;;;5051286;28;20033;-74
2023/05/16 06:09:48;;;;;;;24.67;19.15;;;;;;;;;;5052803;28;20036;-73
2023/05/16 06:12:14;;;;;;;26.00;20.42;;;;;;;;;;5051516;28;20014;-73
2023/05/16 06:14:40;;;;;;;24.92;20.67;;;;;;;;;;5052567;28;20031;-74
2023/05/16 06:17:06;;;;;;;26.60;20.45;;;;;;;;;;5051886;28;20029;-73
2023/05/16 06:19:32;;;;;;;25.33;20.42;;;;;;;;;;5052390;28;20447;-73
2023/05/16 06:21:58;;;;;;;23.83;20.63;;;;;;;;;;5052813;28;20021;-73
2023/05/16 06:24:24;;;;;;;25.17;21.45;;;;;;;;;;5052406;28;20472;-73
2023/05/16 06:26:51;;;;;;;28.25;23.08;;;;;;;;;;5052292;28;20032;-74
2023/05/16 06:29:17;;;;;;;29.05;24.70;;;;;;;;;;5051641;28;20025;-74
2023/05/16 06:31:44;;;;;;;25.73;22.75;;;;;;;;;;5052319;28;20053;-74
2023/05/16 06:34:10;;;;;;;27.65;23.25;;;;;;;;;;5052316;28;20410;-74
2023/05/16 06:36:36;;;;;;;27.85;24.77;;;;;;;;;;5052553;28;20028;-74
2023/05/16 06:39:02;;;;;;;31.83;25.67;;;;;;;;;;5051797;28;20035;-75
2023/05/16 06:41:28;;;;;;;27.42;23.98;;;;;;;;;;5052352;28;20096;-75
2023/05/16 06:43:54;;;;;;;32.95;27.20;;;;;;;;;;5052082;28;20083;-75
2023/05/16 06:46:20;;;;;;;30.65;26.55;;;;;;;;;;5052121;28;20074;-76
2023/05/16 06:48:46;;;;;;;34.88;27.27;;;;;;;;;;5073744;22;20442;-72
2023/05/16 06:51:12;;;;;;;43.95;28.85;;;;;;;;;;5034195;28;20029;-74
2023/05/16 06:53:38;;;;;;;36.30;28.48;;;;;;;;;;5034201;28;20021;-74
2023/05/16 06:56:05;;;;;;;38.45;28.83;;;;;;;;;;5051968;28;20064;-75
2023/05/16 06:58:31;;;;;;;37.03;29.65;;;;;;;;;;5015536;28;20029;-74
2023/05/16 07:00:57;;;;;;;33.30;27.20;;;;;;;;;;5030202;28;20025;-74
2023/05/16 07:03:23;;;;;;;32.53;26.70;;;;;;;;;;5013603;28;20028;-74
2023/05/16 07:05:51;;;;;;;31.77;26.48;;;;;;;;;;5031801;28;20435;-74
2023/05/16 07:08:17;;;;;;;32.58;25.63;;;;;;;;;;5045827;28;20395;-74
2023/05/16 07:10:43;;;;;;;28.38;24.08;;;;;;;;;;5034079;28;20052;-74
2023/05/16 07:13:10;;;;;;;30.05;21.50;;;;;;;;;;5051754;28;20053;-74
2023/05/16 07:15:36;;;;;;;23.73;21.25;;;;;;;;;;5051767;28;20031;-74
2023/05/16 07:18:02;;;;;;;25.70;21.00;;;;;;;;;;5051174;28;20104;-74
2023/05/16 07:20:28;;;;;;;28.85;21.08;;;;;;;;;;5051773;28;20068;-74
2023/05/16 07:22:56;;;;;;;24.17;19.48;;;;;;;;;;5052077;28;20079;-74
2023/05/16 07:25:22;;;;;;;22.63;19.42;;;;;;;;;;5051706;28;20173;-74
2023/05/16 07:27:48;;;;;;;23.30;18.88;;;;;;;;;;5050602;28;20063;-74
2023/05/16 07:30:14;;;;;;;20.58;17.70;;;;;;;;;;5052329;28;20914;-74
2023/05/16 07:32:41;;;;;;;24.73;16.77;;;;;;;;;;5035351;28;20039;-73
2023/05/16 07:35:08;;;;;;;23.77;16.77;;;;;;;;;;5052776;28;20036;-73
2023/05/16 07:37:34;;;;;;;18.02;14.88;;;;;;;;;;5051145;28;20487;-73
2023/05/16 07:40:00;;;;;;;18.52;15.13;;;;;;;;;;5052107;28;20063;-73
2023/05/16 07:42:26;;;;;;;18.95;14.93;;;;;;;;;;5034030;28;20025;-73
2023/05/16 07:44:52;;;;;;;15.05;13.43;;;;;;;;;;5051438;28;20514;-73
2023/05/16 07:47:19;;;;;;;18.40;14.15;;;;;;;;;;5050497;28;20111;-73
2023/05/16 07:49:45;;;;;;;18.30;14.18;;;;;;;;;;5051344;28;20472;-74
2023/05/16 07:52:11;;;;;;;20.67;14.93;;;;;;;;;;5051346;28;20025;-74
2023/05/16 07:54:37;;;;;;;22.38;16.05;;;;;;;;;;5051128;28;20426;-74
2023/05/16 07:57:04;;;;;;;20.25;16.23;;;;;;;;;;5032696;28;20021;-73
2023/05/16 07:59:30;;;;;;;19.35;14.40;;;;;;;;;;5051143;28;20036;-74
2023/05/16 08:01:56;;;;;;;18.58;13.90;;;;;;;;;;5051165;28;20036;-73
2023/05/16 08:04:22;;;;;;;16.85;13.70;;;;;;;;;;5051207;28;20025;-74
2023/05/16 08:06:48;;;;;;;19.02;13.07;;;;;;;;;;5033282;28;20033;-74
2023/05/16 08:09:14;;;;;;;16.80;13.20;;;;;;;;;;5050540;28;20066;-74
2023/05/16 08:11:40;;;;;;;17.10;12.32;;;;;;;;;;5051378;28;20086;-74
2023/05/16 08:14:06;;;;;;;15.07;11.48;;;;;;;;;;5050525;28;20475;-73
2023/05/16 08:16:32;;;;;;;13.95;11.25;;;;;;;;;;5050959;28;20060;-74
2023/05/16 08:18:58;;;;;;;15.13;11.45;;;;;;;;;;5050612;28;20095;-74
2023/05/16 08:21:24;;;;;;;16.65;12.43;;;;;;;;;;5051315;28;20479;-74
2023/05/16 08:23:50;;;;;;;17.77;13.05;;;;;;;;;;5050996;28;20402;-73
2023/05/16 08:26:17;;;;;;;16.17;11.15;;;;;;;;;;5050830;28;20155;-73
2023/05/16 08:28:43;;;;;;;14.45;11.35;;;;;;;;;;5051545;28;20036;-73
2023/05/16 08:31:09;;;;;;;13.80;11.18;;;;;;;;;;5054710;28;20486;-74
2023/05/16 08:33:35;;;;;;;14.25;12.27;;;;;;;;;;5054794;28;20025;-74
2023/05/16 08:36:01;;;;;;;13.25;11.32;;;;;;;;;;5054899;28;20040;-74
2023/05/16 08:38:27;;;;;;;13.88;11.55;;;;;;;;;;5054047;28;20039;-74
2023/05/16 08:40:54;;;;;;;14.60;10.90;;;;;;;;;;5054528;28;20029;-74
2023/05/16 08:43:20;;;;;;;12.98;10.85;;;;;;;;;;5036809;28;20117;-74
2023/05/16 08:45:46;;;;;;;11.82;10.07;;;;;;;;;;5054562;28;20553;-74
2023/05/16 08:48:12;;;;;;;14.60;11.43;;;;;;;;;;5053528;28;20123;-74
2023/05/16 08:50:38;;;;;;;13.10;10.05;;;;;;;;;;5054388;28;20029;-74
2023/05/16 08:53:07;;;;;;;13.52;10.95;;;;;;;;;;5054545;28;20037;-74
2023/05/16 08:55:34;;;;;;;11.25;9.20;;;;;;;;;;5054475;28;20025;-74
2023/05/16 08:58:00;;;;;;;12.57;9.40;;;;;;;;;;5035641;28;20025;-74
2023/05/16 09:00:27;;;;;;;14.52;9.18;;;;;;;;;;5054159;28;20032;-74
2023/05/16 09:02:53;;;;;;;14.68;9.38;;;;;;;;;;5052415;28;20450;-74
2023/05/16 09:05:19;;;;;;;14.32;9.40;;;;;;;;;;5054023;28;20459;-75
2023/05/16 09:07:45;;;;;;;16.05;10.02;;;;;;;;;;5053568;28;20021;-74
2023/05/16 09:10:12;;;;;;;14.50;10.80;;;;;;;;;;5053750;28;20021;-74
2023/05/16 09:12:39;;;;;;;15.18;10.95;;;;;;;;;;5053854;28;20060;-74
2023/05/16 09:15:06;;;;;;;19.52;10.63;;;;;;;;;;5052192;28;20104;-74
2023/05/16 09:17:37;;;;;;;13.82;9.88;;;;;;;;;;5035513;28;20024;-74
2023/05/16 09:20:08;;;;;;;19.83;10.20;;;;;;;;;;5052093;28;20028;-74
2023/05/16 09:22:34;;;;;;;21.40;11.10;;;;;;;;;;5035414;28;20059;-74
2023/05/16 09:25:00;;;;;;;15.20;10.45;;;;;;;;;;5053497;28;20033;-74
2023/05/16 09:27:26;;;;;;;14.68;9.50;;;;;;;;;;5053223;28;20024;-76
2023/05/16 09:29:52;;;;;;;17.00;11.25;;;;;;;;;;5054107;28;20025;-76
2023/05/16 09:32:19;;;;;;;14.85;9.75;;;;;;;;;;5054432;28;20036;-74
2023/05/16 09:34:47;;;;;;;11.20;10.00;;;;;;;;;;5053602;28;20029;-75
2023/05/16 09:37:14;;;;;;;13.95;9.55;;;;;;;;;;5053183;28;20021;-76
2023/05/16 09:39:45;;;;;;;12.52;9.13;;;;;;;;;;5052838;28;20024;-76
2023/05/16 09:42:11;;;;;;;21.90;10.25;;;;;;;;;;5053414;28;20024;-76
2023/05/16 09:44:37;;;;;;;15.15;8.55;;;;;;;;;;5053715;28;20029;-75
2023/05/16 09:47:04;;;;;;;11.73;9.35;;;;;;;;;;5053371;28;20024;-75
2023/05/16 09:49:30;;;;;;;17.00;9.85;;;;;;;;;;5053608;28;20024;-75
2023/05/16 09:51:59;;;;;;;14.63;8.27;;;;;;;;;;5053786;28;20079;-76
2023/05/16 09:54:32;;;;;;;16.38;8.85;;;;;;;;;;5035368;28;20045;-75
2023/05/16 09:56:59;;;;;;;10.40;8.55;;;;;;;;;;5034925;28;20033;-76
2023/05/16 09:59:25;;;;;;;21.40;9.45;;;;;;;;;;5053119;28;20048;-74
2023/05/16 10:01:53;;;;;;;10.85;8.85;;;;;;;;;;5053081;28;20074;-74
2023/05/16 10:04:19;;;;;;;12.95;8.55;;;;;;;;;;5052881;28;20025;-75
2023/05/16 10:06:45;;;;;;;14.13;9.05;;;;;;;;;;5034960;28;20108;-75
2023/05/16 10:09:12;;;;;;;9.25;8.05;;;;;;;;;;5052326;28;20846;-75
2023/05/16 10:11:40;;;;;;;10.80;8.35;;;;;;;;;;5052949;28;20025;-75
2023/05/16 10:14:07;;;;;;;17.88;9.23;;;;;;;;;;5053309;28;20029;-74
2023/05/16 10:16:33;;;;;;;11.30;8.55;;;;;;;;;;5052977;28;20369;-75
2023/05/16 10:19:00;;;;;;;10.15;7.78;;;;;;;;;;5052353;28;20059;-74
2023/05/16 10:21:28;;;;;;;11.82;8.90;;;;;;;;;;5052833;28;20021;-75
2023/05/16 10:23:56;;;;;;;12.25;8.73;;;;;;;;;;5052904;28;20536;-75
2023/05/16 10:26:23;;;;;;;12.75;7.60;;;;;;;;;;5052857;28;20025;-76
2023/05/16 10:28:49;;;;;;;11.02;7.00;;;;;;;;;;5052324;28;20025;-74
2023/05/16 10:31:15;;;;;;;10.52;7.43;;;;;;;;;;5034825;28;20021;-75
2023/05/16 10:33:41;;;;;;;11.65;7.93;;;;;;;;;;5052716;28;20025;-75
2023/05/16 10:36:09;;;;;;;8.98;7.97;;;;;;;;;;5035111;28;20029;-75
2023/05/16 10:38:36;;;;;;;12.10;8.20;;;;;;;;;;5036487;28;20673;-75
2023/05/16 10:41:02;;;;;;;14.20;9.05;;;;;;;;;;5033052;28;20044;-75
2023/05/16 10:43:32;;;;;;;8.95;7.90;;;;;;;;;;5032733;28;20068;-75
2023/05/16 10:46:08;;;;;;;12.93;7.80;;;;;;;;;;5032284;28;20029;-75
2023/05/16 10:48:40;;;;;;;10.05;7.95;;;;;;;;;;5030928;28;20030;-76
2023/05/16 10:51:21;;;;;;;10.90;7.18;;;;;;;;;;5030708;28;20033;-76
2023/05/16 10:53:50;;;;;;;12.85;8.07;;;;;;;;;;5047034;28;20067;-76
2023/05/16 10:56:21;;;;;;;11.45;8.20;;;;;;;;;;5050841;28;20025;-76
2023/05/16 10:58:47;;;;;;;12.07;7.32;;;;;;;;;;5032874;28;20035;-76
2023/05/16 11:01:23;;;;;;;10.13;7.45;;;;;;;;;;5051135;28;20052;-76
2023/05/16 11:04:00;;;;;;;8.88;7.38;;;;;;;;;;5052301;28;20108;-76
2023/05/16 11:06:32;;;;;;;9.45;6.65;;;;;;;;;;5052736;28;20613;-76
2023/05/16 11:09:10;;;;;;;7.28;6.25;;;;;;;;;;5051925;28;20051;-76
2023/05/16 11:11:45;;;;;;;11.45;6.68;;;;;;;;;;5052234;28;20041;-75
2023/05/16 11:14:23;;;;;;;8.43;5.65;;;;;;;;;;5051929;28;20074;-75
2023/05/16 11:16:53;;;;;;;7.75;5.22;;;;;;;;;;5051955;28;20017;-76
2023/05/16 11:19:35;;;;;;;9.65;5.60;;;;;;;;;;5051616;28;20021;-76
2023/05/16 11:22:07;;;;;;;10.68;5.80;;;;;;;;;;5055694;28;20025;-76
2023/05/16 11:24:34;;;;;;;9.68;6.03;;;;;;;;;;5043016;28;20052;-77
2023/05/16 11:27:00;;;;;;;9.18;5.90;;;;;;;;;;5061812;28;20021;-77
2023/05/16 11:29:36;;;;;;;8.40;5.15;;;;;;;;;;5058342;28;20021;-77
2023/05/16 11:32:03;;;;;;;7.65;5.57;;;;;;;;;;5057562;28;20021;-77
2023/05/16 11:34:30;;;;;;;13.10;5.60;;;;;;;;;;5065399;28;20021;-78
2023/05/16 11:36:56;;;;;;;8.07;5.28;;;;;;;;;;5063233;28;20032;-77
2023/05/16 11:39:25;;;;;;;9.75;5.45;;;;;;;;;;5050377;28;20021;-78
2023/05/16 11:41:53;;;;;;;7.75;5.28;;;;;;;;;;5038897;28;20404;-77
2023/05/16 11:44:19;;;;;;;8.65;5.43;;;;;;;;;;5034226;28;20036;-77
2023/05/16 11:46:45;;;;;;;8.18;5.50;;;;;;;;;;5046692;28;20384;-75
2023/05/16 11:49:11;;;;;;;7.40;4.88;;;;;;;;;;5031789;28;20034;-76
2023/05/16 11:51:40;;;;;;;9.48;4.90;;;;;;;;;;5040357;28;20670;-76
2023/05/16 11:54:07;;;;;;;9.70;4.47;;;;;;;;;;5040063;28;20490;-76
2023/05/16 11:56:35;;;;;;;6.78;4.40;;;;;;;;;;5032114;28;20112;-76
2023/05/16 11:59:01;;;;;;;8.13;4.65;;;;;;;;;;5050514;28;20172;-77
2023/05/16 12:01:35;;;;;;;7.45;4.10;;;;;;;;;;5036791;28;20025;-77
2023/05/16 12:04:01;;;;;;;6.78;4.13;;;;;;;;;;5054201;28;20029;-77
2023/05/16 12:06:28;;;;;;;5.43;3.80;;;;;;;;;;5036257;28;20017;-79
2023/05/16 12:08:54;;;;;;;6.30;3.90;;;;;;;;;;5054649;28;20029;-77
2023/05/16 12:11:22;;;;;;;7.40;4.45;;;;;;;;;;5051365;28;20032;-77
2023/05/16 12:13:48;;;;;;;10.32;3.83;;;;;;;;;;5054927;28;20025;-79
2023/05/16 12:16:15;;;;;;;3.72;3.40;;;;;;;;;;5056877;28;20391;-77
2023/05/16 12:18:41;;;;;;;6.38;4.32;;;;;;;;;;5058887;28;20411;-77
2023/05/16 12:21:07;;;;;;;5.82;4.15;;;;;;;;;;5059030;28;20171;-80
2023/05/16 12:23:33;;;;;;;4.22;3.83;;;;;;;;;;5059207;28;20029;-78
2023/05/16 12:26:06;;;;;;;4.40;4.00;;;;;;;;;;5039033;28;20041;-78
2023/05/16 12:28:33;;;;;;;9.07;4.70;;;;;;;;;;5040701;28;20068;-77
2023/05/16 12:30:59;;;;;;;8.98;3.67;;;;;;;;;;5040818;28;20090;-79
2023/05/16 12:33:27;;;;;;;6.40;3.83;;;;;;;;;;5036248;28;20522;-77
2023/05/16 12:35:53;;;;;;;7.05;4.22;;;;;;;;;;5031653;28;20037;-76
2023/05/16 12:38:20;;;;;;;7.63;4.25;;;;;;;;;;5030484;28;20128;-76
2023/05/16 12:40:47;;;;;;;6.30;4.40;;;;;;;;;;5048980;28;20029;-77
2023/05/16 12:43:14;;;;;;;5.38;3.85;;;;;;;;;;5032865;28;20395;-76
2023/05/16 12:45:41;;;;;;;7.25;3.47;;;;;;;;;;5053698;28;20029;-77
2023/05/16 12:48:13;;;;;;;6.00;3.40;;;;;;;;;;5053469;28;20044;-76
2023/05/16 12:50:40;;;;;;;9.95;4.60;;;;;;;;;;5033616;28;20021;-76
2023/05/16 12:53:11;;;;;;;7.53;3.63;;;;;;;;;;5051375;28;20088;-77
2023/05/16 12:55:37;;;;;;;5.38;3.80;;;;;;;;;;5051375;28;20041;-77
2023/05/16 12:58:03;;;;;;;7.35;3.80;;;;;;;;;;5034955;28;20128;-78
2023/05/16 13:00:30;;;;;;;4.70;3.90;;;;;;;;;;5038370;28;20028;-75
2023/05/16 13:02:56;;;;;;;6.15;3.50;;;;;;;;;;5050189;28;20483;-76
2023/05/16 13:05:22;;;;;;;5.07;3.58;;;;;;;;;;5050739;28;20028;-77
2023/05/16 13:07:52;;;;;;;6.93;3.70;;;;;;;;;;5033462;28;20486;-77
2023/05/16 13:10:18;;;;;;;5.28;3.20;;;;;;;;;;5052619;28;20031;-77
2023/05/16 13:12:44;;;;;;;6.28;3.60;;;;;;;;;;5053676;28;20084;-77
2023/05/16 13:15:11;;;;;;;6.82;3.60;;;;;;;;;;5053755;28;20029;-77
2023/05/16 13:17:38;;;;;;;4.55;3.60;;;;;;;;;;5057838;28;20108;-77
2023/05/16 13:20:07;;;;;;;4.63;3.67;;;;;;;;;;5054536;28;20021;-76
2023/05/16 13:22:33;;;;;;;8.13;3.95;;;;;;;;;;5054471;28;20406;-77
2023/05/16 13:24:59;;;;;;;9.02;4.47;;;;;;;;;;5054615;28;20084;-76
2023/05/16 13:27:25;;;;;;;7.40;4.30;;;;;;;;;;5054114;28;20483;-76
2023/05/16 13:29:51;;;;;;;7.50;4.15;;;;;;;;;;5054882;28;20021;-76
2023/05/16 13:32:17;;;;;;;7.90;4.18;;;;;;;;;;5054697;28;20025;-76
2023/05/16 13:34:43;;;;;;;6.18;4.50;;;;;;;;;;5054798;28;20033;-76
2023/05/16 13:37:09;;;;;;;8.32;4.13;;;;;;;;;;5056503;28;20036;-76
2023/05/16 13:39:36;;;;;;;6.90;3.42;;;;;;;;;;5054813;28;20171;-75
2023/05/16 13:42:02;;;;;;;7.50;3.78;;;;;;;;;;5036508;28;20158;-77
2023/05/16 13:44:28;;;;;;;6.63;3.55;;;;;;;;;;5053596;28;20059;-77
2023/05/16 13:46:55;;;;;;;6.38;3.58;;;;;;;;;;5053899;28;20029;-77
2023/05/16 13:49:22;;;;;;;4.10;3.58;;;;;;;;;;5052951;28;20158;-77
2023/05/16 13:51:48;;;;;;;9.50;4.30;;;;;;;;;;5036073;28;20029;-77
2023/05/16 13:54:14;;;;;;;5.80;3.72;;;;;;;;;;5053853;28;20021;-76
2023/05/16 13:56:40;;;;;;;9.07;3.67;;;;;;;;;;5054157;28;20560;-77
2023/05/16 13:59:07;;;;;;;4.38;3.30;;;;;;;;;;5052876;28;20032;-76
2023/05/16 14:01:33;;;;;;;8.85;3.83;;;;;;;;;;5054234;28;20021;-76
2023/05/16 14:03:59;;;;;;;8.57;3.70;;;;;;;;;;5053554;28;20054;-77
2023/05/16 14:06:25;;;;;;;7.22;3.72;;;;;;;;;;5054406;28;20063;-77
2023/05/16 14:08:51;;;;;;;6.18;3.83;;;;;;;;;;5058303;28;20071;-77
2023/05/16 14:11:18;;;;;;;6.90;3.95;;;;;;;;;;5057973;28;20025;-77
2023/05/16 14:13:45;;;;;;;6.50;3.08;;;;;;;;;;5057231;28;20142;-77
2023/05/16 14:16:11;;;;;;;5.38;3.30;;;;;;;;;;5056972;28;20127;-77
2023/05/16 14:18:37;;;;;;;7.70;3.25;;;;;;;;;;5059821;28;20063;-77
2023/05/16 14:21:03;;;;;;;5.60;3.47;;;;;;;;;;5057306;28;20021;-77
2023/05/16 14:23:29;;;;;;;7.22;3.13;;;;;;;;;;5056510;28;20017;-77